Time;durP1;ratioP1;P1;durP2;ratioP2;P2;SDS_P1;SDS_P2;PMS_P1;PMS_P2;Temp;Humidity;BMP_temperature;BMP_pressure;BME280_temperature;BME280_humidity;BME280_pressure;Samples;Min_cycle;Max_cycle;Signal;HPM_P1;HPM_P2
2021/10/23 00:00:39;;;;;;;11.80;8.47;;;14.90;99.90;;;;;;5031797;28;20484;-71
2021/10/23 00:03:09;;;;;;;9.40;7.73;;;14.90;99.90;;;;;;4999116;28;20424;-70
2021/10/23 00:05:57;;;;;;;8.10;5.77;;;14.80;99.90;;;;;;4998938;28;20463;-70
2021/10/23 00:08:34;;;;;;;6.40;4.30;;;14.80;99.90;;;;;;5031762;28;20487;-70
2021/10/23 00:11:12;;;;;;;8.47;3.90;;;14.70;99.90;;;;;;4998947;28;20840;-71
2021/10/23 00:13:38;;;;;;;5.23;3.93;;;14.60;99.90;;;;;;5031546;28;20929;-71
2021/10/23 00:16:16;;;;;;;5.27;3.90;;;14.50;99.90;;;;;;5007169;28;20480;-71
2021/10/23 00:18:43;;;;;;;5.63;3.10;;;14.40;99.90;;;;;;5018441;28;20966;-70
2021/10/23 00:21:09;;;;;;;4.37;3.20;;;14.30;99.90;;;;;;5017889;28;20541;-71
2021/10/23 00:23:36;;;;;;;7.47;3.10;;;14.30;99.90;;;;;;5018156;28;20412;-69
2021/10/23 00:26:03;;;;;;;6.60;2.60;;;14.30;99.90;;;;;;5018169;28;20509;-70
2021/10/23 00:28:30;;;;;;;2.57;2.37;;;14.20;99.90;;;;;;5018038;28;20416;-71
2021/10/23 00:31:05;;;;;;;6.50;2.70;;;14.20;99.90;;;;;;5018237;28;20463;-70
2021/10/23 00:33:36;;;;;;;3.33;2.50;;;14.10;99.90;;;;;;5017878;28;20423;-70
2021/10/23 00:36:04;;;;;;;8.63;2.83;;;14.10;99.90;;;;;;5017647;28;20525;-71
2021/10/23 00:38:31;;;;;;;4.90;2.20;;;14.10;99.90;;;;;;5017805;28;20416;-70
2021/10/23 00:40:57;;;;;;;4.67;2.03;;;14.00;99.90;;;;;;5017520;28;20846;-70
2021/10/23 00:43:44;;;;;;;4.23;2.00;;;14.00;99.90;;;;;;5017988;28;20404;-70
2021/10/23 00:46:24;;;;;;;5.80;2.30;;;14.00;99.90;;;;;;5018039;28;20797;-70
2021/10/23 00:48:55;;;;;;;5.30;2.37;;;13.90;99.90;;;;;;5017332;28;20977;-71
2021/10/23 00:51:39;;;;;;;2.60;1.70;;;13.90;99.90;;;;;;5017803;28;20459;-70
2021/10/23 00:54:09;;;;;;;4.27;3.90;;;13.80;99.90;;;;;;5017567;28;20412;-70
2021/10/23 00:57:06;;;;;;;6.93;2.03;;;13.80;99.90;;;;;;5017335;28;20777;-70
2021/10/23 00:59:34;;;;;;;5.63;1.63;;;13.80;99.90;;;;;;5017258;28;20611;-70
2021/10/23 01:02:08;;;;;;;2.33;1.53;;;13.70;99.90;;;;;;5017215;28;20400;-70
2021/10/23 01:04:36;;;;;;;3.30;2.20;;;13.70;99.90;;;;;;5017067;28;20553;-71
2021/10/23 01:07:04;;;;;;;2.80;1.60;;;13.60;99.90;;;;;;5018326;28;20479;-71
2021/10/23 01:09:32;;;;;;;1.90;1.47;;;13.60;99.90;;;;;;5017618;28;20460;-70
2021/10/23 01:12:08;;;;;;;3.13;1.90;;;13.60;99.90;;;;;;5017468;28;20412;-70
2021/10/23 01:14:50;;;;;;;2.80;1.90;;;13.50;99.90;;;;;;5017206;28;20455;-72
2021/10/23 01:17:22;;;;;;;4.00;1.87;;;13.50;99.90;;;;;;5017003;28;20430;-70
2021/10/23 01:19:53;;;;;;;4.20;1.63;;;13.50;99.90;;;;;;5017514;28;21000;-70
2021/10/23 01:22:34;;;;;;;3.40;1.77;;;13.50;99.90;;;;;;5017169;28;20950;-70
2021/10/23 01:25:23;;;;;;;2.60;1.70;;;13.50;99.90;;;;;;5016921;28;20455;-71
2021/10/23 01:28:09;;;;;;;3.43;1.77;;;13.50;99.90;;;;;;5017135;28;20453;-70
2021/10/23 01:30:49;;;;;;;1.77;1.63;;;13.50;99.90;;;;;;5016815;28;20463;-70
2021/10/23 01:33:16;;;;;;;3.60;1.60;;;13.50;99.90;;;;;;5016836;28;20427;-70
2021/10/23 01:35:44;;;;;;;4.00;1.83;;;13.50;99.90;;;;;;5016832;28;20466;-70
2021/10/23 01:38:23;;;;;;;5.97;1.67;;;13.50;99.90;;;;;;5034438;28;20943;-70
2021/10/23 01:40:49;;;;;;;4.37;1.60;;;13.50;99.90;;;;;;5016628;28;20494;-71
2021/10/23 01:43:37;;;;;;;1.73;1.50;;;13.40;99.90;;;;;;5016906;28;20928;-70
2021/10/23 01:46:25;;;;;;;1.90;1.57;;;13.40;99.90;;;;;;5016362;28;20464;-70
2021/10/23 01:48:52;;;;;;;2.30;1.60;;;13.40;99.90;;;;;;5016510;28;20453;-70
2021/10/23 01:51:26;;;;;;;4.77;1.90;;;13.30;99.90;;;;;;5016145;28;20452;-70
2021/10/23 01:54:05;;;;;;;2.70;1.57;;;13.30;99.90;;;;;;5016434;28;20423;-70
2021/10/23 01:56:34;;;;;;;4.50;1.67;;;13.40;99.90;;;;;;5016756;28;20768;-70
2021/10/23 01:59:01;;;;;;;4.97;2.27;;;13.30;99.90;;;;;;5034146;28;20411;-70
2021/10/23 02:01:27;;;;;;;4.00;1.30;;;13.30;99.90;;;;;;5016564;28;20474;-70
2021/10/23 02:03:53;;;;;;;2.13;1.30;;;13.30;99.90;;;;;;5016355;28;20781;-71
2021/10/23 02:06:36;;;;;;;2.13;1.27;;;13.30;99.90;;;;;;5016318;28;20207;-71
2021/10/23 02:09:11;;;;;;;3.43;1.33;;;13.30;99.90;;;;;;5015185;28;20435;-70
2021/10/23 02:11:37;;;;;;;2.60;1.50;;;13.20;99.90;;;;;;5016308;28;20411;-72
2021/10/23 02:14:09;;;;;;;3.87;1.50;;;13.20;99.90;;;;;;5016261;28;20419;-70
2021/10/23 02:16:37;;;;;;;3.33;1.53;;;13.20;99.90;;;;;;5015812;28;20463;-70
2021/10/23 02:19:03;;;;;;;3.10;1.77;;;13.20;99.90;;;;;;5033700;28;20896;-70
2021/10/23 02:21:34;;;;;;;2.50;1.57;;;13.10;99.90;;;;;;5016124;28;20468;-70
2021/10/23 02:24:16;;;;;;;3.70;1.40;;;13.10;99.90;;;;;;5015854;28;20407;-71
2021/10/23 02:26:42;;;;;;;2.63;1.37;;;13.10;99.90;;;;;;5015954;28;20499;-70
2021/10/23 02:29:08;;;;;;;3.10;1.40;;;13.10;99.90;;;;;;5025515;22;20478;-70
2021/10/23 02:31:35;;;;;;;1.97;1.43;;;13.10;99.90;;;;;;5085617;28;20857;-70
2021/10/23 02:34:01;;;;;;;3.27;1.77;;;13.10;99.90;;;;;;5074916;28;20444;-71
2021/10/23 02:36:28;;;;;;;2.80;1.10;;;13.10;99.90;;;;;;5073795;28;20776;-69
2021/10/23 02:38:59;;;;;;;4.70;1.40;;;13.10;99.90;;;;;;5073705;28;20418;-70
2021/10/23 02:41:52;;;;;;;4.53;1.50;;;13.10;99.90;;;;;;5073814;28;20469;-71
2021/10/23 02:44:19;;;;;;;3.73;1.60;;;13.10;99.90;;;;;;5055540;28;20434;-71
2021/10/23 02:46:51;;;;;;;3.97;1.87;;;13.00;99.90;;;;;;5055691;28;20421;-70
2021/10/23 02:49:17;;;;;;;3.30;1.20;;;13.10;99.90;;;;;;5055724;28;20442;-71
2021/10/23 02:51:45;;;;;;;2.57;1.40;;;13.10;99.90;;;;;;5055691;28;20712;-71
2021/10/23 02:54:22;;;;;;;6.13;1.40;;;13.20;99.90;;;;;;5055403;28;20398;-70
2021/10/23 02:56:56;;;;;;;2.50;1.57;;;13.20;99.90;;;;;;5055301;28;20403;-70
2021/10/23 02:59:26;;;;;;;6.60;1.60;;;13.30;99.90;;;;;;5055223;28;20442;-70
2021/10/23 03:01:55;;;;;;;2.50;1.60;;;13.30;99.90;;;;;;5055286;28;20446;-70
2021/10/23 03:04:27;;;;;;;2.43;1.87;;;13.30;99.90;;;;;;5054912;28;20432;-71
2021/10/23 03:06:57;;;;;;;6.07;1.40;;;13.40;99.90;;;;;;5055406;28;20469;-71
2021/10/23 03:09:24;;;;;;;3.97;1.77;;;13.40;99.90;;;;;;5055101;28;20458;-70
2021/10/23 03:11:54;;;;;;;2.73;1.57;;;13.40;99.90;;;;;;5055357;28;20410;-71
2021/10/23 03:14:25;;;;;;;5.17;1.50;;;13.40;99.90;;;;;;5055226;28;20902;-71
2021/10/23 03:16:51;;;;;;;3.47;1.57;;;13.40;99.90;;;;;;5055315;28;20429;-70
2021/10/23 03:19:19;;;;;;;3.37;1.60;;;13.40;99.90;;;;;;5055726;28;20460;-69
2021/10/23 03:21:49;;;;;;;2.83;1.60;;;13.50;99.90;;;;;;5059002;28;20181;-71
2021/10/23 03:24:15;;;;;;;5.63;1.40;;;13.50;99.90;;;;;;5058902;28;20434;-71
2021/10/23 03:26:43;;;;;;;6.10;1.63;;;13.50;99.90;;;;;;5059067;28;20959;-70
2021/10/23 03:29:12;;;;;;;20.37;10.10;;;13.50;99.90;;;;;;5058648;28;20777;-70
2021/10/23 03:31:38;;;;;;;4.83;2.10;;;13.50;99.90;;;;;;5058925;28;20808;-70
2021/10/23 03:34:07;;;;;;;6.90;3.53;;;13.50;99.90;;;;;;5058621;28;20922;-71
2021/10/23 03:36:38;;;;;;;3.43;1.67;;;13.50;99.90;;;;;;5076781;28;20492;-70
2021/10/23 03:39:05;;;;;;;3.57;1.77;;;13.50;99.90;;;;;;5058561;28;20418;-71
2021/10/23 03:41:31;;;;;;;3.23;1.20;;;13.50;99.90;;;;;;5076818;28;20495;-70
2021/10/23 03:44:06;;;;;;;5.07;1.80;;;13.50;99.90;;;;;;5058513;28;20778;-71
2021/10/23 03:46:34;;;;;;;3.33;1.40;;;13.50;99.90;;;;;;5058379;28;20413;-71
2021/10/23 03:49:10;;;;;;;6.43;1.50;;;13.60;99.90;;;;;;5058367;28;20418;-71
2021/10/23 03:51:37;;;;;;;3.17;1.63;;;13.60;99.90;;;;;;5058683;28;20414;-71
2021/10/23 03:54:17;;;;;;;2.73;1.33;;;13.60;99.90;;;;;;5057960;28;20930;-70
2021/10/23 03:56:46;;;;;;;3.37;2.07;;;13.60;99.90;;;;;;5058904;28;20793;-71
2021/10/23 03:59:18;;;;;;;3.00;1.50;;;13.60;99.90;;;;;;5058091;28;20410;-71
2021/10/23 04:01:47;;;;;;;2.70;1.40;;;13.50;99.90;;;;;;5058389;28;20487;-71
2021/10/23 04:04:23;;;;;;;6.70;2.30;;;13.50;99.90;;;;;;5058273;28;20939;-71
2021/10/23 04:06:53;;;;;;;3.43;1.60;;;13.50;99.90;;;;;;5058136;28;20425;-71
2021/10/23 04:09:19;;;;;;;3.40;1.53;;;13.50;99.90;;;;;;5058186;28;21008;-71
2021/10/23 04:12:03;;;;;;;5.60;2.37;;;13.50;99.90;;;;;;5058239;28;20539;-71
2021/10/23 04:14:42;;;;;;;6.43;1.87;;;13.50;99.90;;;;;;5057940;28;20465;-71
2021/10/23 04:17:11;;;;;;;2.60;1.50;;;13.50;99.90;;;;;;5076046;28;20401;-69
2021/10/23 04:19:37;;;;;;;5.30;1.40;;;13.50;99.90;;;;;;5057902;28;20512;-71
2021/10/23 04:22:09;;;;;;;3.60;1.93;;;13.50;99.90;;;;;;5057996;28;20933;-71
2021/10/23 04:24:47;;;;;;;3.63;1.70;;;13.50;99.90;;;;;;5057896;28;20454;-71
2021/10/23 04:27:20;;;;;;;3.70;1.73;;;13.50;99.90;;;;;;5058162;28;20509;-70
2021/10/23 04:29:46;;;;;;;3.40;1.90;;;13.50;99.90;;;;;;5063429;28;20485;-71
2021/10/23 04:32:24;;;;;;;2.33;1.67;;;13.40;99.90;;;;;;5077276;28;20488;-71
2021/10/23 04:34:51;;;;;;;2.10;1.57;;;13.30;99.90;;;;;;5077943;28;20448;-70
2021/10/23 04:37:19;;;;;;;5.20;2.07;;;13.20;99.90;;;;;;5077771;28;20480;-71
2021/10/23 04:39:53;;;;;;;4.30;2.07;;;13.20;99.90;;;;;;5078087;28;20480;-71
2021/10/23 04:42:19;;;;;;;4.17;1.63;;;13.10;99.90;;;;;;5078223;28;20408;-70
2021/10/23 04:44:48;;;;;;;4.23;1.83;;;13.00;99.90;;;;;;5078098;28;20453;-71
2021/10/23 04:47:28;;;;;;;2.60;2.00;;;13.00;99.90;;;;;;5077796;28;20988;-71
2021/10/23 04:49:55;;;;;;;4.23;1.80;;;12.90;99.90;;;;;;5077932;28;20459;-70
2021/10/23 04:52:22;;;;;;;2.87;1.80;;;12.80;99.90;;;;;;5077864;28;20481;-71
2021/10/23 04:54:55;;;;;;;2.73;1.27;;;12.70;99.90;;;;;;5077392;28;20965;-70
2021/10/23 04:57:22;;;;;;;4.20;1.80;;;12.70;99.90;;;;;;5077522;28;20405;-70
2021/10/23 04:59:52;;;;;;;4.10;1.63;;;12.70;99.90;;;;;;5077454;28;20965;-70
2021/10/23 05:02:18;;;;;;;3.90;2.03;;;12.60;99.90;;;;;;5077526;28;20421;-69
2021/10/23 05:04:44;;;;;;;5.27;1.60;;;12.60;99.90;;;;;;5077336;28;20468;-70
2021/10/23 05:07:10;;;;;;;2.80;1.50;;;12.60;99.90;;;;;;5077280;28;20420;-70
2021/10/23 05:09:43;;;;;;;4.10;1.85;;;12.50;99.90;;;;;;5077188;28;20208;-71
2021/10/23 05:12:09;;;;;;;2.30;1.50;;;12.50;99.90;;;;;;5077361;28;20172;-70
2021/10/23 05:14:58;;;;;;;2.17;1.40;;;12.50;99.90;;;;;;5077152;28;20459;-70
2021/10/23 05:17:24;;;;;;;7.80;3.03;;;12.40;99.90;;;;;;5077233;28;20417;-71
2021/10/23 05:19:51;;;;;;;1.98;1.52;;;12.40;99.90;;;;;;5076742;28;20556;-71
2021/10/23 05:22:27;;;;;;;4.78;2.05;;;12.40;99.90;;;;;;5077065;28;20176;-70
2021/10/23 05:24:53;;;;;;;4.95;1.92;;;12.30;99.90;;;;;;5077112;28;20699;-71
2021/10/23 05:27:26;;;;;;;5.17;2.30;;;12.30;99.90;;;;;;5076708;28;20172;-71
2021/10/23 05:29:53;;;;;;;2.33;1.65;;;12.30;99.90;;;;;;5067536;28;21043;-70
2021/10/23 05:32:21;;;;;;;3.50;1.50;;;12.30;99.90;;;;;;5054538;28;20170;-71
2021/10/23 05:34:53;;;;;;;10.20;7.20;;;12.30;99.90;;;;;;5036602;28;20206;-70
2021/10/23 05:37:20;;;;;;;4.25;3.80;;;12.30;99.90;;;;;;5036594;28;20654;-71
2021/10/23 05:39:46;;;;;;;6.60;3.80;;;12.30;99.90;;;;;;5036514;28;20745;-71
2021/10/23 05:42:15;;;;;;;5.73;3.00;;;12.30;99.90;;;;;;5036279;28;20414;-70
2021/10/23 05:44:41;;;;;;;4.43;2.33;;;12.30;99.90;;;;;;5035959;28;20458;-70
2021/10/23 05:47:18;;;;;;;2.53;2.33;;;12.30;99.90;;;;;;5036632;28;20185;-69
2021/10/23 05:49:47;;;;;;;2.50;2.30;;;12.30;99.90;;;;;;5036470;28;20464;-71
2021/10/23 05:52:14;;;;;;;7.55;2.75;;;12.30;99.90;;;;;;5036264;28;20184;-70
2021/10/23 05:54:41;;;;;;;5.35;2.28;;;12.30;99.90;;;;;;5036289;28;20210;-70
2021/10/23 05:57:10;;;;;;;5.30;2.90;;;12.30;99.90;;;;;;5036061;28;20186;-70
2021/10/23 05:59:45;;;;;;;4.15;2.30;;;12.20;99.90;;;;;;5035659;28;20485;-71
2021/10/23 06:02:24;;;;;;;3.13;2.08;;;12.20;99.90;;;;;;5036278;28;20639;-70
2021/10/23 06:04:55;;;;;;;2.55;2.35;;;12.20;99.90;;;;;;5035635;28;20213;-70
2021/10/23 06:07:24;;;;;;;5.32;3.65;;;12.20;99.90;;;;;;5036157;28;20231;-70
2021/10/23 06:10:02;;;;;;;3.95;2.40;;;12.20;99.90;;;;;;5036011;28;20320;-72
2021/10/23 06:12:31;;;;;;;2.10;1.98;;;12.20;99.90;;;;;;5035737;28;20708;-69
2021/10/23 06:15:02;;;;;;;2.70;2.50;;;12.10;99.90;;;;;;5035913;28;20202;-70
2021/10/23 06:17:28;;;;;;;4.20;2.45;;;12.20;99.90;;;;;;5036042;28;20169;-70
2021/10/23 06:19:56;;;;;;;3.73;2.53;;;12.20;99.90;;;;;;5035904;28;20316;-70
2021/10/23 06:22:22;;;;;;;5.40;4.18;;;12.20;99.90;;;;;;5035986;28;20174;-69
2021/10/23 06:24:48;;;;;;;4.82;3.15;;;12.20;99.90;;;;;;5035904;28;20631;-70
2021/10/23 06:27:16;;;;;;;3.55;2.17;;;12.20;99.90;;;;;;5035967;28;20232;-70
2021/10/23 06:29:42;;;;;;;7.53;2.45;;;12.20;99.90;;;;;;5032042;28;20250;-70
2021/10/23 06:32:11;;;;;;;4.70;2.90;;;12.20;99.90;;;;;;5050953;28;20184;-70
2021/10/23 06:34:46;;;;;;;4.18;3.30;;;12.20;99.90;;;;;;5052043;28;20427;-70
2021/10/23 06:37:19;;;;;;;5.85;3.58;;;12.20;99.90;;;;;;5052450;28;20434;-70
2021/10/23 06:39:45;;;;;;;4.63;2.60;;;12.20;99.90;;;;;;5052349;28;20678;-70
2021/10/23 06:42:22;;;;;;;3.53;2.50;;;12.10;99.90;;;;;;5052221;28;20184;-70
2021/10/23 06:44:47;;;;;;;4.60;3.10;;;12.20;99.90;;;;;;5052184;28;20559;-70
2021/10/23 06:47:27;;;;;;;4.37;2.37;;;12.10;99.90;;;;;;5052270;28;20178;-70
2021/10/23 06:49:55;;;;;;;6.50;2.70;;;12.20;99.90;;;;;;5052119;28;20674;-70
2021/10/23 06:52:22;;;;;;;9.25;3.65;;;12.20;99.90;;;;;;5052068;28;20639;-70
2021/10/23 06:54:49;;;;;;;5.13;3.50;;;12.20;99.90;;;;;;5053565;28;20212;-70
2021/10/23 06:57:17;;;;;;;4.25;2.80;;;12.20;99.90;;;;;;5056179;28;20181;-70
2021/10/23 06:59:49;;;;;;;4.75;2.53;;;12.20;99.90;;;;;;5055055;28;20221;-70
2021/10/23 07:02:23;;;;;;;4.40;2.45;;;12.20;99.90;;;;;;5057536;28;20184;-69
2021/10/23 07:04:49;;;;;;;3.15;2.78;;;12.20;99.90;;;;;;5091700;22;20227;-70
2021/10/23 07:07:15;;;;;;;4.53;2.70;;;12.30;99.90;;;;;;5099545;28;20172;-69
2021/10/23 07:09:41;;;;;;;4.70;2.80;;;12.20;99.90;;;;;;5094072;28;20595;-71
2021/10/23 07:12:08;;;;;;;5.70;2.93;;;12.30;99.90;;;;;;5093112;28;20191;-69
2021/10/23 07:14:35;;;;;;;4.93;2.50;;;12.40;99.90;;;;;;5090443;28;20906;-71
2021/10/23 07:17:07;;;;;;;6.47;3.27;;;12.50;99.90;;;;;;5080460;28;20501;-71
2021/10/23 07:20:29;;;;;;;3.57;2.97;;;12.70;99.90;;;;;;5088388;28;20514;-71
2021/10/23 07:22:56;;;;;;;6.53;3.17;;;12.60;99.90;;;;;;5097620;28;20948;-71
2021/10/23 07:25:26;;;;;;;4.90;3.65;;;12.60;99.90;;;;;;5089864;28;20497;-71
2021/10/23 07:27:53;;;;;;;6.60;2.87;;;12.60;99.90;;;;;;5081732;28;20173;-71
2021/10/23 07:30:20;;;;;;;4.67;3.57;;;12.60;99.90;;;;;;5099537;28;20491;-69
2021/10/23 07:32:47;;;;;;;5.17;2.90;;;12.60;99.90;;;;;;5097125;28;20423;-70
2021/10/23 07:35:13;;;;;;;6.43;3.30;;;12.60;99.90;;;;;;5099169;28;20523;-70
2021/10/23 07:38:09;;;;;;;10.03;3.10;;;12.70;99.90;;;;;;5099234;28;20408;-71
2021/10/23 07:40:53;;;;;;;2.17;1.70;;;12.80;99.90;;;;;;5078462;28;20472;-72
2021/10/23 07:43:26;;;;;;;4.70;3.30;;;12.80;99.90;;;;;;5083746;28;20955;-74
2021/10/23 07:45:53;;;;;;;2.23;2.00;;;12.80;99.90;;;;;;5100928;28;20885;-70
2021/10/23 07:48:24;;;;;;;6.00;2.57;;;12.90;99.90;;;;;;5097878;28;20510;-72
2021/10/23 07:50:52;;;;;;;3.77;1.87;;;12.90;99.90;;;;;;5079487;28;20521;-71
2021/10/23 07:53:22;;;;;;;4.07;2.47;;;12.90;99.90;;;;;;5084556;28;20455;-72
2021/10/23 07:55:48;;;;;;;4.37;2.43;;;13.00;99.90;;;;;;5093521;28;20819;-70
2021/10/23 07:58:14;;;;;;;4.73;1.87;;;13.30;99.90;;;;;;5098790;28;20412;-74
2021/10/23 08:00:47;;;;;;;5.53;1.93;;;13.90;99.90;;;;;;5096195;28;20558;-70
2021/10/23 08:03:14;;;;;;;10.27;2.20;;;14.80;99.90;;;;;;5097722;28;20420;-70
2021/10/23 08:05:45;;;;;;;2.93;1.73;;;16.00;99.90;;;;;;5096192;28;20989;-74
2021/10/23 08:08:24;;;;;;;8.30;2.30;;;17.20;99.90;;;;;;5094221;28;20771;-73
2021/10/23 08:10:50;;;;;;;2.10;1.57;;;18.30;97.60;;;;;;5078342;28;20456;-72
2021/10/23 08:13:17;;;;;;;2.30;1.40;;;18.70;99.80;;;;;;5093390;28;20550;-72
2021/10/23 08:15:44;;;;;;;3.43;1.60;;;18.80;96.10;;;;;;5095181;28;20923;-73
2021/10/23 08:18:26;;;;;;;5.63;2.10;;;18.60;95.80;;;;;;5085135;28;20413;-72
2021/10/23 08:20:53;;;;;;;2.53;1.67;;;18.30;95.90;;;;;;5112171;28;20528;-73
2021/10/23 08:23:19;;;;;;;5.73;2.17;;;17.90;95.50;;;;;;5090153;28;20482;-73
2021/10/23 08:25:51;;;;;;;5.03;2.73;;;17.50;95.90;;;;;;5092800;28;20471;-72
2021/10/23 08:28:19;;;;;;;4.53;2.57;;;17.20;96.30;;;;;;5088792;28;20459;-73
2021/10/23 08:30:45;;;;;;;8.00;5.37;;;17.00;96.40;;;;;;5095842;28;20532;-70
2021/10/23 08:36:10;;;;;;;4.87;2.50;;;16.80;96.80;;;;;;5113264;28;20462;-72
2021/10/23 08:39:01;;;;;;;2.40;1.90;;;16.70;96.50;;;;;;5097899;28;20412;-72
2021/10/23 08:41:28;;;;;;;4.87;1.87;;;16.70;96.40;;;;;;5097813;28;20524;-74
2021/10/23 08:50:35;;;;;;;4.83;2.20;;;16.60;96.40;;;;;;5080842;28;20999;-68
2021/10/23 08:53:24;;;;;;;3.73;2.30;;;16.40;96.70;;;;;;5076684;28;20456;-72
2021/10/23 08:59:01;;;;;;;5.33;2.60;;;16.20;99.90;;;;;;5074194;28;20944;-71
2021/10/23 09:11:40;;;;;;;2.33;1.63;;;15.60;99.90;;;;;;5092300;28;20556;-71
2021/10/23 09:14:21;;;;;;;8.17;2.80;;;15.70;99.90;;;;;;5086597;28;20432;-71
2021/10/23 09:17:26;;;;;;;3.43;2.73;;;15.60;99.90;;;;;;5092633;28;20451;-76
2021/10/23 09:21:13;;;;;;;3.20;2.00;;;15.50;98.40;;;;;;5072000;28;20435;-74
2021/10/23 09:27:24;;;;;;;3.83;2.17;;;15.10;98.50;;;;;;5110499;23;20514;-93
2021/10/23 09:29:54;;;;;;;3.70;2.67;;;15.00;98.60;;;;;;4949060;28;20462;-94
2021/10/23 09:32:20;;;;;;;7.23;3.50;;;15.00;98.90;;;;;;4936444;29;20479;-93
2021/10/23 09:34:47;;;;;;;16.77;7.97;;;15.00;98.60;;;;;;4937480;29;20563;-93
2021/10/23 09:37:13;;;;;;;70.07;31.43;;;15.00;98.60;;;;;;4939318;29;20845;-93
2021/10/23 09:39:39;;;;;;;32.30;14.20;;;15.00;98.80;;;;;;4938427;29;20776;-93
2021/10/23 09:42:19;;;;;;;67.20;29.00;;;15.00;99.00;;;;;;4922954;29;20448;-93
2021/10/23 09:45:03;;;;;;;13.90;6.90;;;15.00;99.10;;;;;;4925703;29;20456;-92
2021/10/23 09:47:43;;;;;;;42.83;20.80;;;15.00;99.20;;;;;;4922164;29;20440;-91
2021/10/23 09:50:15;;;;;;;45.30;20.50;;;15.00;99.10;;;;;;4923123;29;21143;-93
2021/10/23 09:53:00;;;;;;;9.57;6.20;;;15.10;99.60;;;;;;4919892;29;20809;-92
2021/10/23 09:55:53;;;;;;;4.77;2.97;;;15.10;99.20;;;;;;4926231;29;20809;-94
2021/10/23 09:58:26;;;;;;;3.63;3.10;;;15.20;99.00;;;;;;4926358;29;20827;-92
2021/10/23 10:00:56;;;;;;;2.10;1.83;;;15.20;98.90;;;;;;4935154;29;20519;-93
2021/10/23 10:03:23;;;;;;;3.07;2.23;;;15.30;98.90;;;;;;4920845;29;20495;-93
2021/10/23 10:05:59;;;;;;;2.60;1.40;;;15.30;99.00;;;;;;4937690;29;20464;-93
2021/10/23 10:08:27;;;;;;;1.90;1.50;;;15.30;98.80;;;;;;4952930;29;20786;-94
2021/10/23 10:10:54;;;;;;;3.70;1.40;;;15.30;98.50;;;;;;4935197;29;20487;-93
2021/10/23 10:13:23;;;;;;;2.90;1.70;;;15.30;98.20;;;;;;4928084;29;20465;-92
2021/10/23 10:15:58;;;;;;;2.10;1.30;;;15.30;98.10;;;;;;4926515;29;20567;-93
2021/10/23 10:18:25;;;;;;;4.37;2.30;;;15.40;98.00;;;;;;4938046;29;20424;-94
2021/10/23 10:20:57;;;;;;;5.97;2.30;;;15.40;97.90;;;;;;4920706;29;20583;-94
2021/10/23 10:23:31;;;;;;;4.30;1.87;;;15.40;97.50;;;;;;4934803;29;20425;-93
2021/10/23 10:26:25;;;;;;;2.30;2.10;;;15.40;97.50;;;;;;4920237;29;20484;-92
2021/10/23 10:29:14;;;;;;;2.17;1.90;;;15.30;97.50;;;;;;4905573;29;20437;-93
2021/10/23 10:31:53;;;;;;;6.70;3.27;;;15.30;97.70;;;;;;4916619;29;20472;-92
2021/10/23 10:42:56;;;;;;;3.27;2.97;;;15.30;97.50;;;;;;4914246;29;20433;-94
2021/10/23 10:45:28;;;;;;;1.60;1.50;;;15.40;97.30;;;;;;4917410;29;20461;-94
2021/10/23 10:48:20;;;;;;;3.60;1.33;;;15.40;96.50;;;;;;4918766;29;20504;-94
2021/10/23 10:50:52;;;;;;;1.30;1.20;;;15.50;99.90;;;;;;4899258;29;20569;-95
2021/10/23 10:53:45;;;;;;;2.43;1.40;;;15.60;99.90;;;;;;4904374;29;20541;-93
2021/10/23 10:56:16;;;;;;;4.30;1.60;;;15.70;99.90;;;;;;4878006;29;20460;-93
2021/10/23 10:58:52;;;;;;;2.80;1.50;;;15.80;96.80;;;;;;4903947;29;20436;-93
2021/10/23 11:01:24;;;;;;;2.30;1.50;;;15.80;96.50;;;;;;4909167;29;20488;-92
2021/10/23 11:03:56;;;;;;;2.47;2.13;;;15.90;96.60;;;;;;4902372;29;20780;-93
2021/10/23 11:06:34;;;;;;;1.30;1.20;;;16.00;96.60;;;;;;4919919;29;20461;-94
2021/10/23 11:09:12;;;;;;;1.23;1.13;;;16.10;97.30;;;;;;4916744;29;20468;-93
2021/10/23 11:11:50;;;;;;;2.37;1.33;;;16.20;96.20;;;;;;4917619;29;20825;-96
2021/10/23 11:16:55;;;;;;;2.77;1.50;;;16.30;95.90;;;;;;4918501;29;20440;-94
2021/10/23 11:19:40;;;;;;;6.20;2.20;;;16.40;95.80;;;;;;4916910;29;20547;-94
2021/10/23 11:22:16;;;;;;;3.60;1.70;;;16.40;95.50;;;;;;4900872;29;20453;-94
2021/10/23 11:25:04;;;;;;;3.37;1.40;;;16.40;95.30;;;;;;4903241;29;20877;-96
2021/10/23 11:27:44;;;;;;;2.77;2.03;;;16.30;95.70;;;;;;4918260;29;20481;-95
2021/10/23 11:30:40;;;;;;;4.00;2.73;;;16.30;95.90;;;;;;4910247;29;20577;-94
2021/10/23 11:33:11;;;;;;;5.50;3.20;;;16.30;96.00;;;;;;4932024;29;21194;-94
2021/10/23 11:35:45;;;;;;;4.03;2.93;;;16.40;95.70;;;;;;4918961;29;20472;-94
2021/10/23 11:38:23;;;;;;;7.57;5.50;;;16.40;95.80;;;;;;4919941;29;20431;-93
2021/10/23 11:40:57;;;;;;;6.03;2.90;;;16.30;96.30;;;;;;4920049;29;20628;-95
2021/10/23 11:43:28;;;;;;;4.00;1.60;;;16.30;95.80;;;;;;4923673;29;20459;-92
2021/10/23 11:45:54;;;;;;;5.80;3.57;;;16.20;95.80;;;;;;4927721;29;20789;-94
2021/10/23 11:48:20;;;;;;;4.03;2.83;;;16.20;95.90;;;;;;4931419;29;20442;-93
2021/10/23 11:50:51;;;;;;;3.90;2.43;;;16.20;95.80;;;;;;4926929;29;20479;-92
2021/10/23 11:53:30;;;;;;;3.60;1.60;;;16.20;95.50;;;;;;4923974;29;20265;-96
2021/10/23 11:56:16;;;;;;;3.50;3.20;;;16.20;95.40;;;;;;4924195;29;20456;-95
2021/10/23 11:58:46;;;;;;;4.20;2.80;;;16.10;95.20;;;;;;4924721;29;20424;-95
2021/10/23 12:01:19;;;;;;;2.70;2.00;;;16.00;95.20;;;;;;4921932;29;20511;-94
2021/10/23 12:03:48;;;;;;;2.37;1.80;;;16.00;95.70;;;;;;4921600;29;20518;-95
2021/10/23 12:06:20;;;;;;;1.47;1.20;;;16.00;95.50;;;;;;4914846;29;20467;-95
2021/10/23 12:08:54;;;;;;;2.40;1.53;;;16.00;95.20;;;;;;4917668;29;20452;-92
2021/10/23 12:11:24;;;;;;;1.93;1.33;;;16.00;95.50;;;;;;4926064;29;20452;-94
2021/10/23 12:14:08;;;;;;;3.10;1.27;;;16.00;95.60;;;;;;4926648;29;20500;-94
2021/10/23 12:16:36;;;;;;;2.07;1.70;;;16.00;95.70;;;;;;4943878;29;20904;-92
2021/10/23 12:19:13;;;;;;;1.53;1.27;;;16.00;95.80;;;;;;4947299;29;20459;-94
2021/10/23 12:21:43;;;;;;;2.23;1.30;;;16.00;95.50;;;;;;4930270;29;20467;-93
2021/10/23 12:24:25;;;;;;;1.53;1.10;;;15.90;95.60;;;;;;4921932;29;20448;-93
2021/10/23 12:27:42;;;;;;;2.07;1.70;;;15.90;96.30;;;;;;4925994;29;20525;-94
2021/10/23 12:31:03;;;;;;;1.70;1.50;;;15.80;96.20;;;;;;4915266;29;21030;-93
2021/10/23 12:33:30;;;;;;;3.23;1.40;;;15.80;96.30;;;;;;4879821;29;20434;-94
2021/10/23 12:36:14;;;;;;;3.47;1.40;;;15.80;96.00;;;;;;4901759;29;21014;-93
2021/10/23 12:38:40;;;;;;;1.30;1.20;;;15.90;96.40;;;;;;4881434;29;20273;-94
2021/10/23 12:41:07;;;;;;;3.30;1.97;;;15.90;96.40;;;;;;4901147;29;20563;-95
2021/10/23 12:43:37;;;;;;;2.77;1.33;;;16.00;96.40;;;;;;4899462;29;20195;-96
2021/10/23 12:46:05;;;;;;;2.13;1.30;;;16.00;96.00;;;;;;4898946;29;20470;-95
2021/10/23 12:48:30;;;;;;;3.00;1.77;;;16.10;95.70;;;;;;4885061;29;20434;-94
2021/10/23 12:50:57;;;;;;;19.87;9.43;;;16.20;95.90;;;;;;4884594;29;20507;-95
2021/10/23 12:53:23;;;;;;;22.83;8.30;;;16.30;95.00;;;;;;4889972;29;20192;-95
2021/10/23 12:55:48;;;;;;;19.90;5.77;;;16.40;94.60;;;;;;4880380;29;20462;-95
2021/10/23 12:58:17;;;;;;;3.07;2.27;;;16.40;97.00;;;;;;4881851;29;20605;-95
2021/10/23 13:00:46;;;;;;;3.07;2.00;;;16.50;95.00;;;;;;4885768;29;20219;-95
2021/10/23 13:03:12;;;;;;;5.10;3.30;;;16.50;94.70;;;;;;4894479;29;20447;-96
2021/10/23 13:05:38;;;;;;;2.47;1.83;;;16.50;94.70;;;;;;4912417;29;20453;-95
2021/10/23 13:08:04;;;;;;;2.97;1.83;;;16.50;94.90;;;;;;4900364;29;20829;-94
2021/10/23 13:10:30;;;;;;;2.03;1.90;;;16.50;95.00;;;;;;4901595;29;20821;-94
2021/10/23 13:12:57;;;;;;;1.90;1.20;;;16.50;94.80;;;;;;4888627;29;20456;-96
2021/10/23 13:15:26;;;;;;;2.60;1.77;;;16.50;94.90;;;;;;4905555;29;20579;-94
2021/10/23 13:17:56;;;;;;;4.40;1.70;;;16.50;96.10;;;;;;4900577;29;20516;-95
2021/10/23 13:20:23;;;;;;;3.63;1.80;;;16.50;99.20;;;;;;4904157;29;20932;-96
2021/10/23 13:22:55;;;;;;;9.47;4.20;;;16.50;99.50;;;;;;4902844;29;20421;-95
2021/10/23 13:25:23;;;;;;;5.53;2.50;;;16.60;99.90;;;;;;4901968;29;20453;-96
2021/10/23 13:27:49;;;;;;;3.40;1.60;;;16.70;99.60;;;;;;4917228;29;20449;-96
2021/10/23 13:30:16;;;;;;;5.80;2.33;;;16.70;99.90;;;;;;4924584;29;20514;-95
2021/10/23 13:32:42;;;;;;;2.00;1.43;;;16.80;99.90;;;;;;4920138;29;20194;-96
2021/10/23 13:35:12;;;;;;;2.70;1.77;;;16.80;99.90;;;;;;4917229;29;20476;-96
2021/10/23 13:37:38;;;;;;;2.90;1.47;;;16.90;99.90;;;;;;4919636;29;20443;-96
2021/10/23 13:40:05;;;;;;;6.30;1.90;;;16.90;99.90;;;;;;4933469;29;20485;-96
2021/10/23 13:42:31;;;;;;;1.83;1.50;;;16.90;99.90;;;;;;4927840;29;20448;-96
2021/10/23 13:45:04;;;;;;;4.50;1.70;;;16.90;99.90;;;;;;4920561;29;20495;-94
2021/10/23 13:47:30;;;;;;;3.27;1.63;;;16.90;99.90;;;;;;4914832;29;20647;-95
2021/10/23 13:49:56;;;;;;;3.80;1.30;;;17.00;99.90;;;;;;4921085;29;20546;-96